createdAt,value
2018-08-16T00:00:30.635Z,0.00
2018-08-16T00:01:30.642Z,0.00
2018-08-16T00:02:30.655Z,0.00
2018-08-16T00:03:30.991Z,0.00
2018-08-16T00:04:30.800Z,0.00
2018-08-16T00:05:30.688Z,0.00
2018-08-16T00:06:30.702Z,0.00
2018-08-16T00:07:30.721Z,0.00
2018-08-16T00:08:30.972Z,0.00
2018-08-16T00:09:30.865Z,0.00
2018-08-16T00:10:30.874Z,0.00
2018-08-16T00:11:30.762Z,0.00
2018-08-16T00:12:30.779Z,0.00
2018-08-16T00:13:30.930Z,0.00
2018-08-16T00:14:30.793Z,0.00
2018-08-16T00:15:31.235Z,0.00
2018-08-16T00:16:30.821Z,0.00
2018-08-16T00:17:30.957Z,0.00
2018-08-16T00:18:30.844Z,0.00
2018-08-16T00:19:30.859Z,0.00
2018-08-16T00:20:31.241Z,0.00
2018-08-16T00:21:30.879Z,0.00
2018-08-16T00:22:30.891Z,0.00
2018-08-16T00:23:30.897Z,0.00
2018-08-16T00:24:31.032Z,0.00
2018-08-16T00:25:31.245Z,0.00
2018-08-16T00:27:30.949Z,0.00
2018-08-16T00:28:30.952Z,0.00
2018-08-16T00:29:30.967Z,0.00
2018-08-16T00:30:31.132Z,0.00
2018-08-16T00:31:31.120Z,0.00
2018-08-16T00:32:31.132Z,0.00
2018-08-16T00:33:31.136Z,0.00
2018-08-16T00:34:31.031Z,0.00
2018-08-16T00:35:31.416Z,0.00
2018-08-16T00:36:31.055Z,0.00
2018-08-16T00:37:31.065Z,0.00
2018-08-16T00:38:31.196Z,0.00
2018-08-16T00:39:31.083Z,0.00
2018-08-16T00:40:31.411Z,0.00
2018-08-16T00:41:31.234Z,0.00
2018-08-16T00:42:31.121Z,0.00
2018-08-16T00:43:31.125Z,0.00
2018-08-16T00:44:31.271Z,0.00
2018-08-16T00:45:31.525Z,0.00
2018-08-16T00:46:31.178Z,0.00
2018-08-16T00:47:31.233Z,0.00
2018-08-16T00:48:31.312Z,0.00
2018-08-16T00:49:31.323Z,0.00
2018-08-16T00:50:31.542Z,0.00
2018-08-16T00:51:31.224Z,0.00
2018-08-16T00:52:31.363Z,0.00
2018-08-16T00:53:31.245Z,0.00
2018-08-16T00:54:31.272Z,0.00
2018-08-16T00:55:31.549Z,0.00
2018-08-16T00:56:31.302Z,0.00
2018-08-16T00:57:31.416Z,0.00
2018-08-16T00:58:31.428Z,0.00
2018-08-16T00:59:31.572Z,0.00
2018-08-16T01:00:31.324Z,0.00
2018-08-16T01:01:31.346Z,0.00
2018-08-16T01:02:31.355Z,0.00
2018-08-16T01:03:31.385Z,0.00
2018-08-16T01:04:31.581Z,0.00
2018-08-16T01:05:31.513Z,0.00
2018-08-16T01:06:31.528Z,0.00
2018-08-16T01:07:31.542Z,0.00
2018-08-16T01:08:31.429Z,0.00
2018-08-16T01:09:31.433Z,0.00
2018-08-16T01:10:31.687Z,0.00
2018-08-16T01:11:31.581Z,0.00
2018-08-16T01:12:31.597Z,0.00
2018-08-16T01:13:31.604Z,0.00
2018-08-16T01:14:31.498Z,0.00
2018-08-16T01:15:31.837Z,0.00
2018-08-16T01:16:31.509Z,0.00
2018-08-16T01:17:31.656Z,0.00
2018-08-16T01:18:31.668Z,0.00
2018-08-16T01:19:31.549Z,0.00
2018-08-16T01:20:31.786Z,0.00
2018-08-16T01:21:31.696Z,0.00
2018-08-16T01:22:31.709Z,0.00
2018-08-16T01:23:31.599Z,0.00
2018-08-16T01:24:31.610Z,0.00
2018-08-16T01:25:31.747Z,0.00
2018-08-16T01:26:31.833Z,0.00
2018-08-16T01:27:31.643Z,0.00
2018-08-16T01:28:31.780Z,0.00
2018-08-16T01:29:31.671Z,0.00
2018-08-16T01:30:31.681Z,0.00
2018-08-16T01:31:31.695Z,0.00
2018-08-16T01:32:31.948Z,0.00
2018-08-16T01:33:31.836Z,0.00
2018-08-16T01:34:31.733Z,0.00
2018-08-16T01:35:31.917Z,0.00
2018-08-16T01:36:31.760Z,0.00
2018-08-16T01:37:31.959Z,0.00
2018-08-16T01:38:31.772Z,0.00
2018-08-16T01:39:31.788Z,0.00
2018-08-16T01:40:31.793Z,0.00
2018-08-16T01:41:31.808Z,0.00
2018-08-16T01:42:31.970Z,0.00
2018-08-16T01:43:31.839Z,0.00
2018-08-16T01:44:31.854Z,0.00
2018-08-16T01:45:31.852Z,0.00
2018-08-16T01:46:31.865Z,0.00
2018-08-16T01:47:32.075Z,0.00
2018-08-16T01:48:32.018Z,0.00
2018-08-16T01:49:31.897Z,0.00
2018-08-16T01:50:31.905Z,0.00
2018-08-16T01:51:31.919Z,0.00
2018-08-16T01:52:32.184Z,0.00
2018-08-16T01:53:32.069Z,0.00
2018-08-16T01:54:32.087Z,0.00
2018-08-16T01:55:31.980Z,0.00
2018-08-16T01:56:32.021Z,0.00
2018-08-16T01:57:32.325Z,0.00
2018-08-16T01:58:32.132Z,0.00
2018-08-16T01:59:32.141Z,0.00
2018-08-16T02:00:32.150Z,0.00
2018-08-16T02:01:32.047Z,0.00
2018-08-16T02:02:32.254Z,0.00
2018-08-16T02:03:32.065Z,0.00
2018-08-16T02:04:32.205Z,0.00
2018-08-16T02:05:32.086Z,0.00
2018-08-16T02:06:32.093Z,0.00
2018-08-16T02:07:32.437Z,0.00
2018-08-16T02:08:32.245Z,0.00
2018-08-16T02:09:32.256Z,0.00
2018-08-16T02:10:32.151Z,0.00
2018-08-16T02:11:32.157Z,0.00
2018-08-16T02:12:32.381Z,0.00
2018-08-16T02:13:32.305Z,0.00
2018-08-16T02:14:32.318Z,0.00
2018-08-16T02:15:32.332Z,0.00
2018-08-16T02:16:32.237Z,0.00
2018-08-16T02:17:32.482Z,0.00
2018-08-16T02:18:32.239Z,0.00
2018-08-16T02:19:32.240Z,0.00
2018-08-16T02:20:32.264Z,0.00
2018-08-16T02:21:32.397Z,0.00
2018-08-16T02:22:32.288Z,0.00
2018-08-16T02:23:32.548Z,0.00
2018-08-16T02:24:32.306Z,0.00
2018-08-16T02:25:32.316Z,0.00
2018-08-16T02:26:32.334Z,0.00
2018-08-16T02:27:32.500Z,0.00
2018-08-16T02:28:32.362Z,0.00
2018-08-16T02:29:32.580Z,0.00
2018-08-16T02:30:32.372Z,0.00
2018-08-16T02:31:32.395Z,0.00
2018-08-16T02:32:32.534Z,0.00
2018-08-16T02:33:32.564Z,0.00
2018-08-16T02:34:32.427Z,0.00
2018-08-16T02:35:32.814Z,0.00
2018-08-16T02:36:32.578Z,0.00
2018-08-16T02:37:32.505Z,0.00
2018-08-16T02:38:32.601Z,0.00
2018-08-16T02:39:32.537Z,0.00
2018-08-16T02:40:32.765Z,0.00
2018-08-16T02:41:32.502Z,0.00
2018-08-16T02:42:32.515Z,0.00
2018-08-16T02:43:32.534Z,0.00
2018-08-16T02:44:32.670Z,0.00
2018-08-16T02:45:32.794Z,0.00
2018-08-16T02:46:32.695Z,0.00
2018-08-16T02:47:32.572Z,0.00
2018-08-16T02:48:32.587Z,0.00
2018-08-16T02:49:32.602Z,0.00
2018-08-16T02:50:32.868Z,0.00
2018-08-16T02:51:32.625Z,0.00
2018-08-16T02:52:32.762Z,0.00
2018-08-16T02:53:32.646Z,0.00
2018-08-16T02:54:32.786Z,0.00
2018-08-16T02:55:32.944Z,0.00
2018-08-16T02:56:32.804Z,0.00
2018-08-16T02:57:32.693Z,0.00
2018-08-16T02:58:32.693Z,0.00
2018-08-16T02:59:33.002Z,0.00
2018-08-16T03:00:32.738Z,0.00
2018-08-16T03:01:32.917Z,0.00
2018-08-16T03:02:32.746Z,0.00
2018-08-16T03:03:32.776Z,0.00
2018-08-16T03:04:33.020Z,0.00
2018-08-16T03:05:32.785Z,0.00
2018-08-16T03:06:32.923Z,0.00
2018-08-16T03:07:32.936Z,0.00
2018-08-16T03:08:32.950Z,0.00
2018-08-16T03:09:33.091Z,0.00
2018-08-16T03:10:32.841Z,0.00
2018-08-16T03:11:32.979Z,0.00
2018-08-16T03:12:32.989Z,0.00
2018-08-16T03:13:32.883Z,0.00
2018-08-16T03:14:33.048Z,0.00
2018-08-16T03:15:32.903Z,0.00
2018-08-16T03:16:32.917Z,0.00
2018-08-16T03:17:32.927Z,0.00
2018-08-16T03:18:32.929Z,0.00
2018-08-16T03:19:33.152Z,0.00
2018-08-16T03:20:32.983Z,0.00
2018-08-16T03:21:32.960Z,0.00
2018-08-16T03:22:32.981Z,0.00
2018-08-16T03:23:33.114Z,0.00
2018-08-16T03:24:33.276Z,0.00
2018-08-16T03:25:33.141Z,0.00
2018-08-16T03:26:33.033Z,0.00
2018-08-16T03:27:33.037Z,0.00
2018-08-16T03:28:33.060Z,0.00
2018-08-16T03:29:33.312Z,0.00
2018-08-16T03:30:33.083Z,0.00
2018-08-16T03:31:33.213Z,0.00
2018-08-16T03:32:33.086Z,0.00
2018-08-16T03:33:33.236Z,0.00
2018-08-16T03:34:33.324Z,0.00
2018-08-16T03:35:33.119Z,0.00
2018-08-16T03:36:33.273Z,0.00
2018-08-16T03:37:33.177Z,0.00
2018-08-16T03:38:33.292Z,0.00
2018-08-16T03:39:33.436Z,0.00
2018-08-16T03:40:33.313Z,0.00
2018-08-16T03:41:33.332Z,0.00
2018-08-16T03:42:33.258Z,0.00
2018-08-16T03:43:33.235Z,0.00
2018-08-16T03:44:33.431Z,0.00
2018-08-16T03:45:33.247Z,0.00
2018-08-16T03:46:33.257Z,0.00
2018-08-16T03:47:33.269Z,0.00
2018-08-16T03:48:33.410Z,0.00
2018-08-16T03:49:33.446Z,0.00
2018-08-16T03:50:33.428Z,0.00
2018-08-16T03:51:33.316Z,0.00
2018-08-16T03:52:33.536Z,0.00
2018-08-16T03:53:33.466Z,0.00
2018-08-16T03:54:33.479Z,0.00
2018-08-16T03:55:33.488Z,0.00
2018-08-16T03:56:33.379Z,0.00
2018-08-16T03:57:33.589Z,0.00
2018-08-16T03:58:33.399Z,0.00
2018-08-16T03:59:33.535Z,0.00
2018-08-16T04:00:33.434Z,0.00
2018-08-16T04:01:33.558Z,0.00
2018-08-16T04:02:33.652Z,0.00
2018-08-16T04:03:33.453Z,0.00
2018-08-16T04:04:33.459Z,0.00
2018-08-16T04:05:33.604Z,0.00
2018-08-16T04:06:33.618Z,0.00
2018-08-16T04:07:33.697Z,0.00
2018-08-16T04:08:33.640Z,0.00
2018-08-16T04:09:33.653Z,0.00
2018-08-16T04:10:33.537Z,0.00
2018-08-16T04:11:33.558Z,0.00
2018-08-16T04:12:33.769Z,0.00
2018-08-16T04:13:33.580Z,0.00
2018-08-16T04:14:33.710Z,0.00
2018-08-16T04:15:33.598Z,0.00
2018-08-16T04:16:33.622Z,0.00
2018-08-16T04:17:34.044Z,0.00
2018-08-16T04:18:33.752Z,0.00
2018-08-16T04:19:33.645Z,0.00
2018-08-16T04:20:33.775Z,0.00
2018-08-16T04:21:33.661Z,0.00
2018-08-16T04:22:33.926Z,0.00
2018-08-16T04:23:33.700Z,0.00
2018-08-16T04:24:33.700Z,0.00
2018-08-16T04:25:33.721Z,0.00
2018-08-16T04:26:33.723Z,0.00
2018-08-16T04:27:34.034Z,0.00
2018-08-16T04:28:33.754Z,0.00
2018-08-16T04:29:33.886Z,0.00
2018-08-16T04:30:33.896Z,0.00
2018-08-16T04:31:33.773Z,0.00
2018-08-16T04:32:34.042Z,0.00
2018-08-16T04:33:33.926Z,0.00
2018-08-16T04:34:33.810Z,0.00
2018-08-16T04:35:33.901Z,0.00
2018-08-16T04:36:33.962Z,0.00
2018-08-16T04:37:34.111Z,0.00
2018-08-16T04:38:33.900Z,0.00
2018-08-16T04:39:34.001Z,0.00
2018-08-16T04:40:33.888Z,0.00
2018-08-16T04:41:33.956Z,0.00
2018-08-16T04:42:34.174Z,0.00
2018-08-16T04:43:33.931Z,0.00
2018-08-16T04:44:34.062Z,0.00
2018-08-16T04:45:33.930Z,0.00
2018-08-16T04:46:34.082Z,0.00
2018-08-16T04:47:34.216Z,0.00
2018-08-16T04:48:34.031Z,0.00
2018-08-16T04:49:34.111Z,0.00
2018-08-16T04:50:34.011Z,0.00
2018-08-16T04:51:34.136Z,0.00
2018-08-16T04:52:34.345Z,0.00
2018-08-16T04:53:34.031Z,0.00
2018-08-16T04:54:34.170Z,0.00
2018-08-16T04:57:34.207Z,0.00
2018-08-16T04:58:34.216Z,0.00
2018-08-16T04:59:34.104Z,0.00
2018-08-16T05:00:34.235Z,0.00
2018-08-16T05:01:34.257Z,0.00
2018-08-16T05:02:34.138Z,0.00
2018-08-16T05:03:34.289Z,0.00
2018-08-16T05:04:34.168Z,0.00
2018-08-16T05:05:34.296Z,0.00
2018-08-16T05:07:34.317Z,0.00
2018-08-16T05:08:34.530Z,0.00
2018-08-16T05:09:34.344Z,0.00
2018-08-16T05:10:34.242Z,0.00
2018-08-16T05:11:34.372Z,0.00
2018-08-16T05:12:34.264Z,0.00
2018-08-16T05:13:34.459Z,0.00
2018-08-16T05:14:34.310Z,0.00
2018-08-16T05:15:34.291Z,0.00
2018-08-16T05:16:34.345Z,0.00
2018-08-16T05:17:34.307Z,0.00
2018-08-16T05:18:34.578Z,0.00
2018-08-16T05:19:34.324Z,0.00
2018-08-16T05:20:34.345Z,0.00
2018-08-16T05:21:34.481Z,0.00
2018-08-16T05:22:34.488Z,0.00
2018-08-16T05:23:34.381Z,0.00
2018-08-16T05:24:34.762Z,0.00
2018-08-16T05:25:34.409Z,0.00
2018-08-16T05:26:34.537Z,0.00
2018-08-16T05:27:34.421Z,0.00
2018-08-16T05:28:34.440Z,0.00
2018-08-16T05:29:34.772Z,0.00
2018-08-16T05:30:34.472Z,0.00
2018-08-16T05:31:34.477Z,0.00
2018-08-16T05:32:34.490Z,0.00
2018-08-16T05:33:34.488Z,0.00
2018-08-16T05:34:34.794Z,0.00
2018-08-16T05:35:34.639Z,0.00
2018-08-16T05:36:34.652Z,0.00
2018-08-16T05:37:34.539Z,0.00
2018-08-16T05:38:34.536Z,0.00
2018-08-16T05:39:34.560Z,0.00
2018-08-16T05:40:34.897Z,0.00
2018-08-16T05:41:34.577Z,0.00
2018-08-16T05:42:34.584Z,0.00
2018-08-16T05:43:34.794Z,0.00
2018-08-16T05:44:34.742Z,0.00
2018-08-16T05:45:34.764Z,0.00
2018-08-16T05:46:35.062Z,0.00
2018-08-16T05:48:34.784Z,0.00
2018-08-16T05:49:34.671Z,0.00
2018-08-16T05:50:34.685Z,0.00
2018-08-16T05:51:34.692Z,0.00
2018-08-16T05:52:35.148Z,0.00
2018-08-16T05:53:34.841Z,0.00
2018-08-16T05:54:34.860Z,0.00
2018-08-16T05:55:34.748Z,0.00
2018-08-16T05:56:34.764Z,0.00
2018-08-16T05:57:34.981Z,0.00
2018-08-16T05:58:34.783Z,0.00
2018-08-16T05:59:34.914Z,0.00
2018-08-16T06:01:34.938Z,0.00
2018-08-16T06:02:34.948Z,0.00
2018-08-16T06:03:35.026Z,0.00
2018-08-16T06:04:34.979Z,0.00
2018-08-16T06:05:34.863Z,0.00
2018-08-16T06:06:34.879Z,0.00
2018-08-16T06:07:35.064Z,0.00
2018-08-16T06:08:35.023Z,0.00
2018-08-16T06:09:35.135Z,0.00
2018-08-16T06:10:34.923Z,0.00
2018-08-16T06:11:34.938Z,0.00
2018-08-16T06:12:35.064Z,0.00
2018-08-16T06:13:34.999Z,0.00
2018-08-16T06:14:35.172Z,0.00
2018-08-16T06:15:35.215Z,0.00
2018-08-16T06:16:34.992Z,0.00
2018-08-16T06:17:35.129Z,0.00
2018-08-16T06:18:35.022Z,0.00
2018-08-16T06:19:35.218Z,0.00
2018-08-16T06:20:35.046Z,0.00
2018-08-16T06:21:35.175Z,0.00
2018-08-16T06:22:35.063Z,0.00
2018-08-16T06:23:35.067Z,0.00
2018-08-16T06:24:35.333Z,0.00
2018-08-16T06:25:35.221Z,0.00
2018-08-16T06:26:35.107Z,0.00
2018-08-16T06:27:35.242Z,0.00
2018-08-16T06:28:35.128Z,0.00
2018-08-16T06:29:35.391Z,0.00
2018-08-16T06:30:35.277Z,0.00
2018-08-16T06:31:35.236Z,0.00
2018-08-16T06:32:35.355Z,0.00
2018-08-16T06:33:35.315Z,0.00
2018-08-16T06:34:35.398Z,0.00
2018-08-16T06:35:35.219Z,0.00
2018-08-16T06:36:35.237Z,0.00
2018-08-16T06:37:35.231Z,0.00
2018-08-16T06:38:35.292Z,0.00
2018-08-16T06:39:35.457Z,0.00
2018-08-16T06:40:35.398Z,0.00
2018-08-16T06:41:35.270Z,0.00
2018-08-16T06:42:35.298Z,0.00
2018-08-16T06:43:35.314Z,0.00
2018-08-16T06:44:35.509Z,0.00
2018-08-16T06:45:35.449Z,0.00
2018-08-16T06:46:35.336Z,0.00
2018-08-16T06:47:35.474Z,0.00
2018-08-16T06:48:35.365Z,0.00
2018-08-16T06:49:35.641Z,0.00
2018-08-16T06:50:35.396Z,0.00
2018-08-16T06:51:35.525Z,0.00
2018-08-16T06:52:35.495Z,0.00
2018-08-16T06:53:35.549Z,0.00
2018-08-16T06:54:35.653Z,0.00
2018-08-16T06:55:35.468Z,0.00
2018-08-16T06:56:35.464Z,0.00
2018-08-16T06:57:35.595Z,0.00
2018-08-16T06:58:35.603Z,0.00
2018-08-16T06:59:35.615Z,0.00
2018-08-16T07:00:35.930Z,0.00
2018-08-16T07:01:35.510Z,0.00
2018-08-16T07:02:35.648Z,0.00
2018-08-16T07:03:35.659Z,0.00
2018-08-16T07:04:35.554Z,0.00
2018-08-16T07:05:35.564Z,0.00
2018-08-16T07:06:35.820Z,0.00
2018-08-16T07:07:35.587Z,0.00
2018-08-16T07:09:35.601Z,0.00
2018-08-16T07:10:35.611Z,0.00
2018-08-16T07:11:35.871Z,0.00
2018-08-16T07:12:35.716Z,0.00
2018-08-16T07:13:35.776Z,0.00
2018-08-16T07:14:35.666Z,0.00
2018-08-16T07:15:35.715Z,0.00
2018-08-16T07:16:35.693Z,0.00
2018-08-16T07:17:35.998Z,0.00
2018-08-16T07:18:35.741Z,0.00
2018-08-16T07:19:35.736Z,0.00
2018-08-16T07:20:35.864Z,0.00
2018-08-16T07:21:35.878Z,0.00
2018-08-16T07:22:35.964Z,0.00
2018-08-16T07:23:35.898Z,0.00
2018-08-16T07:24:35.787Z,0.00
2018-08-16T07:25:35.791Z,0.00
2018-08-16T07:26:35.807Z,0.00
2018-08-16T07:27:35.822Z,0.00
2018-08-16T07:28:36.033Z,0.00
2018-08-16T07:29:35.836Z,0.00
2018-08-16T07:30:35.977Z,0.00
2018-08-16T07:31:35.871Z,0.00
2018-08-16T07:32:35.910Z,0.00
2018-08-16T07:33:35.884Z,0.00
2018-08-16T07:34:36.208Z,0.00
2018-08-16T07:35:35.923Z,0.00
2018-08-16T07:36:35.928Z,0.00
2018-08-16T07:37:35.941Z,0.00
2018-08-16T07:38:35.946Z,0.00
2018-08-16T07:39:36.160Z,0.00
2018-08-16T07:40:36.094Z,0.00
2018-08-16T07:41:36.110Z,0.00
2018-08-16T07:42:36.114Z,0.00
2018-08-16T07:43:36.021Z,0.00
2018-08-16T07:44:36.347Z,0.00
2018-08-16T07:45:36.131Z,0.00
2018-08-16T07:46:36.166Z,0.00
2018-08-16T07:47:36.062Z,0.00
2018-08-16T07:48:36.077Z,0.00
2018-08-16T07:49:36.397Z,0.00
2018-08-16T07:50:36.219Z,0.00
2018-08-16T07:51:36.255Z,0.00
2018-08-16T07:52:36.234Z,0.00
2018-08-16T07:53:36.134Z,0.00
2018-08-16T07:54:36.347Z,0.00
2018-08-16T07:55:36.158Z,0.00
2018-08-16T07:56:36.153Z,0.00
2018-08-16T07:57:36.170Z,0.00
2018-08-16T07:58:36.217Z,0.00
2018-08-16T07:59:36.404Z,0.00
2018-08-16T08:00:36.203Z,0.00
2018-08-16T08:01:36.216Z,0.00
2018-08-16T08:02:36.356Z,0.00
2018-08-16T08:03:36.237Z,0.00
2018-08-16T08:04:36.558Z,0.00
2018-08-16T08:05:36.263Z,0.00
2018-08-16T08:06:36.271Z,0.00
2018-08-16T08:07:36.286Z,0.00
2018-08-16T08:08:36.429Z,0.00
2018-08-16T08:09:36.781Z,0.00
2018-08-16T08:10:36.336Z,0.00
2018-08-16T08:11:36.455Z,0.00
2018-08-16T08:12:36.354Z,0.00
2018-08-16T08:13:36.348Z,0.00
2018-08-16T08:14:36.692Z,0.00
2018-08-16T08:15:36.521Z,0.00
2018-08-16T08:16:36.518Z,0.00
2018-08-16T08:17:36.411Z,0.00
2018-08-16T08:18:36.425Z,0.00
2018-08-16T08:19:36.634Z,0.00
2018-08-16T08:20:36.567Z,0.00
2018-08-16T08:21:36.470Z,0.00
2018-08-16T08:22:36.588Z,0.00
2018-08-16T08:23:36.473Z,0.00
2018-08-16T08:24:36.797Z,0.00
2018-08-16T08:25:36.624Z,0.00
2018-08-16T08:26:36.504Z,0.00
2018-08-16T08:27:36.521Z,0.00
2018-08-16T08:28:36.541Z,0.00
2018-08-16T08:29:36.786Z,0.00
2018-08-16T08:30:36.557Z,0.00
2018-08-16T08:31:36.727Z,0.00
2018-08-16T08:32:36.713Z,0.00
2018-08-16T08:33:36.603Z,0.00
2018-08-16T08:34:37.027Z,0.00
2018-08-16T08:35:36.653Z,0.00
2018-08-16T08:36:36.751Z,0.00
2018-08-16T08:37:36.659Z,0.00
2018-08-16T08:38:36.874Z,0.00
2018-08-16T08:39:36.669Z,0.00
2018-08-16T08:40:37.050Z,0.00
2018-08-16T08:41:36.684Z,0.00
2018-08-16T08:42:36.699Z,0.00
2018-08-16T08:43:36.705Z,0.00
2018-08-16T08:44:36.726Z,0.00
2018-08-16T08:45:37.112Z,0.00
2018-08-16T08:46:36.884Z,0.00
2018-08-16T08:47:36.754Z,0.00
2018-08-16T08:48:36.787Z,0.00
2018-08-16T08:49:36.911Z,0.00
2018-08-16T08:50:36.995Z,0.00
2018-08-16T08:51:36.935Z,0.00
2018-08-16T08:52:36.830Z,0.00
2018-08-16T08:54:36.838Z,0.00
2018-08-16T08:55:37.057Z,0.00
2018-08-16T08:56:36.870Z,0.00
2018-08-16T08:57:36.873Z,0.00
2018-08-16T08:58:36.900Z,0.00
2018-08-16T08:59:36.903Z,0.00
2018-08-16T09:00:37.287Z,0.00
2018-08-16T09:01:36.927Z,0.00
2018-08-16T09:02:36.931Z,0.00
2018-08-16T09:03:36.997Z,0.00
2018-08-16T09:04:36.969Z,0.00
2018-08-16T09:05:37.294Z,0.00
2018-08-16T09:06:36.979Z,0.00
2018-08-16T09:07:37.124Z,0.00
2018-08-16T09:08:37.136Z,0.00
2018-08-16T09:09:37.144Z,0.00
2018-08-16T09:10:37.230Z,0.00
2018-08-16T09:11:37.167Z,0.00
2018-08-16T09:12:37.058Z,0.00
2018-08-16T09:13:37.114Z,0.00
2018-08-16T09:14:37.118Z,0.00
2018-08-16T09:15:37.337Z,4.00
2018-08-16T09:16:37.116Z,4.00
2018-08-16T09:17:37.239Z,4.00
2018-08-16T09:18:37.253Z,8.00
2018-08-16T09:19:37.136Z,8.00
2018-08-16T09:20:37.525Z,8.00
2018-08-16T09:21:37.294Z,12.00
2018-08-16T09:22:37.160Z,16.00
2018-08-16T09:23:37.221Z,20.00
2018-08-16T09:24:37.318Z,24.00
2018-08-16T09:25:37.536Z,20.00
2018-08-16T09:26:37.224Z,24.00
2018-08-16T09:27:37.352Z,32.00
2018-08-16T09:28:37.240Z,40.00
2018-08-16T09:29:37.250Z,40.00
2018-08-16T09:30:37.267Z,44.00
2018-08-16T09:31:37.718Z,44.00
2018-08-16T09:32:37.303Z,56.00
2018-08-16T09:33:37.430Z,68.00
2018-08-16T09:34:37.444Z,88.00
2018-08-16T09:35:37.329Z,104.00
2018-08-16T09:36:37.668Z,120.00
2018-08-16T09:37:37.357Z,128.00
2018-08-16T09:38:37.490Z,140.00
2018-08-16T09:39:37.549Z,144.00
2018-08-16T09:40:37.513Z,180.00
2018-08-16T09:41:37.768Z,196.00
2018-08-16T09:42:37.415Z,212.00
2018-08-16T09:43:37.473Z,216.00
2018-08-16T09:44:37.442Z,212.00
2018-08-16T09:45:37.464Z,200.00
2018-08-16T09:46:37.779Z,204.00
2018-08-16T09:47:37.598Z,244.00
2018-08-16T09:48:37.609Z,232.00
2018-08-16T09:49:37.616Z,216.00
2018-08-16T09:50:37.523Z,220.00
2018-08-16T09:51:37.838Z,260.00
2018-08-16T09:52:37.539Z,312.00
2018-08-16T09:53:37.539Z,416.00
2018-08-16T09:54:37.675Z,516.00
2018-08-16T09:55:37.684Z,568.00
2018-08-16T09:56:37.766Z,800.00
2018-08-16T09:57:37.585Z,944.00
2018-08-16T09:58:37.601Z,1120.00
2018-08-16T09:59:37.617Z,1256.00
2018-08-16T10:00:37.619Z,1224.00
2018-08-16T10:01:37.834Z,1264.00
2018-08-16T10:02:37.650Z,1348.00
2018-08-16T10:03:37.784Z,1500.00
2018-08-16T10:04:37.679Z,1616.00
2018-08-16T10:05:37.689Z,1796.00
2018-08-16T10:06:38.015Z,1880.00
2018-08-16T10:07:37.717Z,2032.00
2018-08-16T10:08:37.719Z,2040.00
2018-08-16T10:09:37.854Z,2076.00
2018-08-16T10:11:38.007Z,2100.00
2018-08-16T10:12:37.759Z,2132.00
2018-08-16T10:13:37.841Z,2324.00
2018-08-16T10:14:37.916Z,2292.00
2018-08-16T10:15:37.816Z,2444.00
2018-08-16T10:16:38.114Z,2612.00
2018-08-16T10:17:37.947Z,2684.00
2018-08-16T10:18:37.833Z,2768.00
2018-08-16T10:19:37.867Z,2788.00
2018-08-16T10:20:37.860Z,2960.00
2018-08-16T10:21:38.077Z,3008.00
2018-08-16T10:22:37.883Z,3132.00
2018-08-16T10:23:37.891Z,3312.00
2018-08-16T10:24:37.929Z,3428.00
2018-08-16T10:25:37.940Z,3516.00
2018-08-16T10:26:38.309Z,3772.00
2018-08-16T10:27:37.959Z,3724.00
2018-08-16T10:28:37.965Z,3796.00
2018-08-16T10:29:38.091Z,3664.00
2018-08-16T10:30:37.988Z,3620.00
2018-08-16T10:31:38.228Z,3496.00
2018-08-16T10:32:38.129Z,3664.00
2018-08-16T10:33:38.146Z,3804.00
2018-08-16T10:34:38.025Z,3644.00
2018-08-16T10:35:38.045Z,3392.00
2018-08-16T10:36:38.359Z,3624.00
2018-08-16T10:37:38.087Z,3844.00
2018-08-16T10:38:38.206Z,3900.00
2018-08-16T10:39:38.085Z,3964.00
2018-08-16T10:40:38.105Z,3892.00
2018-08-16T10:41:38.325Z,3708.00
2018-08-16T10:42:38.134Z,3508.00
2018-08-16T10:43:38.183Z,3340.00
2018-08-16T10:44:38.413Z,3304.00
2018-08-16T10:45:38.164Z,3200.00
2018-08-16T10:46:38.394Z,3384.00
2018-08-16T10:47:38.321Z,3100.00
2018-08-16T10:48:38.328Z,2952.00
2018-08-16T10:49:38.224Z,3008.00
2018-08-16T10:50:38.357Z,3200.00
2018-08-16T10:51:38.443Z,3568.00
2018-08-16T10:52:38.255Z,3884.00
2018-08-16T10:53:38.403Z,3920.00
2018-08-16T10:54:38.280Z,3936.00
2018-08-16T10:55:38.297Z,3840.00
2018-08-16T10:56:38.557Z,3764.00
2018-08-16T10:57:38.329Z,4076.00
2018-08-16T10:58:38.455Z,4072.00
2018-08-16T10:59:38.347Z,3992.00
2018-08-16T11:00:38.395Z,3952.00
2018-08-16T11:01:38.578Z,3848.00
2018-08-16T11:02:38.507Z,3548.00
2018-08-16T11:03:38.519Z,3552.00
2018-08-16T11:04:38.414Z,3344.00
2018-08-16T11:05:38.544Z,3564.00
2018-08-16T11:06:38.761Z,3140.00
2018-08-16T11:07:38.654Z,2596.00
2018-08-16T11:08:38.461Z,2712.00
2018-08-16T11:09:38.596Z,2776.00
2018-08-16T11:10:38.483Z,2888.00
2018-08-16T11:11:38.797Z,3056.00
2018-08-16T11:12:38.509Z,2932.00
2018-08-16T11:13:38.565Z,3212.00
2018-08-16T11:14:38.534Z,3628.00
2018-08-16T11:15:38.672Z,3776.00
2018-08-16T11:16:38.985Z,3676.00
2018-08-16T11:17:38.698Z,3392.00
2018-08-16T11:18:38.592Z,3100.00
2018-08-16T11:19:38.726Z,3148.00
2018-08-16T11:20:38.739Z,2928.00
2018-08-16T11:21:38.954Z,2520.00
2018-08-16T11:22:38.642Z,1848.00
2018-08-16T11:23:38.672Z,1540.00
2018-08-16T11:24:38.665Z,1612.00
2018-08-16T11:25:38.806Z,1724.00
2018-08-16T11:26:38.904Z,1276.00
2018-08-16T11:27:38.711Z,1192.00
2018-08-16T11:28:38.746Z,1276.00
2018-08-16T11:29:38.858Z,1516.00
2018-08-16T11:30:38.874Z,1512.00
2018-08-16T11:31:39.181Z,1444.00
2018-08-16T11:32:38.894Z,1524.00
2018-08-16T11:33:38.797Z,1432.00
2018-08-16T11:34:38.919Z,1380.00
2018-08-16T11:35:38.804Z,1380.00
2018-08-16T11:36:39.022Z,1560.00
2018-08-16T11:37:38.851Z,2136.00
2018-08-16T11:38:38.849Z,2200.00
2018-08-16T11:39:38.858Z,2084.00
2018-08-16T11:40:38.982Z,2448.00
2018-08-16T11:41:39.090Z,2952.00
2018-08-16T11:42:39.023Z,2984.00
2018-08-16T11:43:38.941Z,3124.00
2018-08-16T11:44:38.920Z,3128.00
2018-08-16T11:45:39.062Z,3244.00
2018-08-16T11:46:39.455Z,3232.00
2018-08-16T11:47:39.084Z,3632.00
2018-08-16T11:48:39.096Z,4220.00
2018-08-16T11:49:39.107Z,4576.00
2018-08-16T11:50:38.993Z,5308.00
2018-08-16T11:51:39.331Z,5132.00
2018-08-16T11:52:39.143Z,6256.00
2018-08-16T11:53:39.031Z,5320.00
2018-08-16T11:54:39.053Z,5648.00
2018-08-16T11:55:39.085Z,6188.00
2018-08-16T11:56:39.383Z,5816.00
2018-08-16T11:57:39.097Z,5648.00
2018-08-16T11:58:39.208Z,6120.00
2018-08-16T11:59:39.237Z,6728.00
2018-08-16T12:00:39.131Z,7248.00
2018-08-16T12:01:39.383Z,8204.00
2018-08-16T12:02:39.189Z,11668.00
2018-08-16T12:03:39.215Z,13768.00
2018-08-16T12:04:39.305Z,13996.00
2018-08-16T12:05:39.230Z,15160.00
2018-08-16T12:06:39.326Z,18208.00
2018-08-16T12:07:39.247Z,16032.00
2018-08-16T12:08:39.227Z,16576.00
2018-08-16T12:09:39.373Z,20032.00
2018-08-16T12:10:39.258Z,32192.00
2018-08-16T12:11:39.299Z,22560.00
2018-08-16T12:12:39.617Z,36800.00
2018-08-16T12:13:39.432Z,34496.00
2018-08-16T12:14:39.357Z,41760.00
2018-08-16T12:15:39.457Z,25952.00
2018-08-16T12:16:39.476Z,27648.00
2018-08-16T12:17:39.686Z,28992.00
2018-08-16T12:18:39.503Z,30688.00
2018-08-16T12:19:39.387Z,22880.00
2018-08-16T12:20:39.534Z,26720.00
2018-08-16T12:21:39.547Z,20544.00
2018-08-16T12:22:39.765Z,20864.00
2018-08-16T12:23:39.500Z,22592.00
2018-08-16T12:24:39.489Z,22176.00
2018-08-16T12:25:39.611Z,19776.00
2018-08-16T12:26:39.635Z,18752.00
2018-08-16T12:27:39.725Z,18784.00
2018-08-16T12:28:39.542Z,15808.00
2018-08-16T12:29:39.544Z,17440.00
2018-08-16T12:30:39.690Z,21760.00
2018-08-16T12:31:39.575Z,23744.00
2018-08-16T12:32:39.922Z,22048.00
2018-08-16T12:33:39.611Z,21216.00
2018-08-16T12:34:39.641Z,20224.00
2018-08-16T12:35:39.658Z,18944.00
2018-08-16T12:36:39.685Z,20384.00
2018-08-16T12:37:40.038Z,22016.00
2018-08-16T12:38:39.829Z,22976.00
2018-08-16T12:39:39.838Z,21056.00
2018-08-16T12:40:39.783Z,22048.00
2018-08-16T12:41:39.744Z,23424.00
2018-08-16T12:42:40.013Z,23232.00
2018-08-16T12:43:39.901Z,24256.00
2018-08-16T12:44:39.924Z,26304.00
2018-08-16T12:45:39.810Z,26624.00
2018-08-16T12:46:39.828Z,29120.00
2018-08-16T12:47:40.206Z,30080.00
2018-08-16T12:48:39.858Z,28672.00
2018-08-16T12:49:40.000Z,28896.00
2018-08-16T12:50:39.900Z,25984.00
2018-08-16T12:51:39.951Z,21888.00
2018-08-16T12:52:40.121Z,19456.00
2018-08-16T12:53:40.018Z,20672.00
2018-08-16T12:54:39.984Z,19264.00
2018-08-16T12:55:39.985Z,18464.00
2018-08-16T12:56:40.014Z,16080.00
2018-08-16T12:57:40.317Z,12548.00
2018-08-16T12:58:40.157Z,11676.00
2018-08-16T12:59:40.177Z,12232.00
2018-08-16T13:00:40.075Z,15020.00
2018-08-16T13:01:40.085Z,15640.00
2018-08-16T13:02:40.432Z,14484.00
2018-08-16T13:03:40.241Z,14768.00
2018-08-16T13:04:40.161Z,19104.00